Boardman, Ohio
Current Conditions -  °F | °C
As of 7:51 AM on Thursday 30 Oct 2014 (Local Time) from KYNG Reporting Station
Light Rain Light Rain  
Wind Chill: 38°   Ceiling: 2000
Heat Index: 42°   Visibility: 6mi
Dew Point: 40°   Wind: 7mph
Humidity: 92%   Direction: 270°W
Pressure: 30.08"   Gusts: NA
Location:  41.02°N, 80.66°W
Report Text: KYNG 301151Z 27006KT 6SM -RA BR FEW007 BKN020 OVC044 06/04 A3008 RMK AO2 RAB47 SLP192 P0000 60001 70001 T00560044 10061 20056 51009 $
Loading
Personal Weather Stations






























Interactive Weather Map
Tropical Storm Tracking
New forecast layout! Learn more

10-Day Weather Forecast

Advertisements
Track Severe Weather on mobile